Iasi, Romania

7:14 AM EET on December 08, 2016 (GMT +0200)
Iasi

Weather History for LRIA - March, 2014

Change the Weather History Date:

Tuesday, March 11, 2014

  Actual Average Record
Temperature  
Mean Temperature 46 °F -  
Max Temperature 62 °F - - ()
Min Temperature 30 °F - - ()
Degree Days  
Heating Degree Days 19    
Moisture  
Dew Point 26 °F    
Average Humidity 46    
Maximum Humidity 80    
Minimum Humidity 12    
Precipitation  
Precipitation 0.00 in - - ()
Sea Level Pressure  
Sea Level Pressure 30.21 in    
Wind  
Wind Speed 7 mph ()    
Max Wind Speed 16 mph    
Max Gust Speed 26 mph    
Visibility 6.0 miles    
Events      
T = Trace of Precipitation, MM = Missing Value Source: Averaged Metar Reports

Daily Weather History Graph

Daily Weather History Graph

Search for Another Location

Airport or City:

Trip Planner

Search our weather history database for the weather conditions in past years. The results will help you decide how hot, cold, wet, or windy it might be!

Date:

Astronomy

Mar. 11, 2014 Rise Set
Actual Time 6:30 AM EET 6:08 PM EET
Civil Twilight 6:00 AM EET 6:39 PM EET
Nautical Twilight 5:25 AM EET 7:14 PM EET
Astronomical Twilight 4:49 AM EET 7:50 PM EET
Moon 1:13 PM EET (3/11) 3:26 AM EET (3/11)
Length of Visible Light 12h 38m
Length of Day
11h 38m
Waxing Gibbous, 76% of the Moon is Illuminated
Mar 11
Waxing Gibbous
Mar 16
Full
Mar 24
Last Quarter
Mar 30
New
Apr 7
First Quarter

Hourly Weather History & Observations

Time (EET) Temp. Windchill Dew Point Humidity Pressure Visibility Wind Dir Wind Speed Gust Speed Precip Events Conditions
12:00 AM 33 °F - 25 °F 62% 30.32 in 6 mi NNW 2.2 mph - -   Overcast
12:00 AM 37.4 °F 32.1 °F 21.2 °F 52% 30.27 in - NNW 6.9 mph - N/A   Clear
1:00 AM 31 °F - 25 °F 69% 30.31 in 6 mi West 2.2 mph - -   Overcast
1:00 AM 37.4 °F 29.8 °F 23.0 °F 56% 30.27 in - North 11.5 mph - N/A   Clear
2:00 AM 31 °F - 24 °F 66% 30.31 in 6 mi West 2.2 mph - -   Overcast
2:00 AM 37.4 °F 32.1 °F 23.0 °F 56% 30.27 in - NNW 6.9 mph - N/A   Clear
3:00 AM 33 °F - 25 °F 62% 30.30 in 6 mi West 2.2 mph - -   Overcast
3:00 AM 35.6 °F 28.6 °F 24.8 °F 65% 30.24 in - NW 9.2 mph - N/A   Clear
4:00 AM 32 °F - 26 °F 68% 30.28 in 6 mi WNW 2.2 mph - -   Overcast
4:00 AM 33.8 °F 26.4 °F 24.8 °F 70% 30.24 in - NW 9.2 mph - N/A   Clear
5:00 AM 31 °F - 25 °F 72% 30.28 in 6 mi West 2.2 mph - -   Clear
5:00 AM 32.0 °F 25.6 °F 24.8 °F 75% 30.24 in - WSW 6.9 mph - N/A   Clear
5:30 AM 32.0 °F 27.5 °F 24.8 °F 75% 30.24 in - WSW 4.6 mph - N/A   Clear
6:00 AM 31 °F - 25 °F 69% 30.27 in 6 mi WNW 4.5 mph - -   Clear
6:00 AM 32.0 °F 27.5 °F 24.8 °F 75% 30.24 in - WSW 4.6 mph - N/A   Clear
6:30 AM 32.0 °F 27.5 °F 24.8 °F 75% 30.24 in - West 4.6 mph - N/A   Clear
7:00 AM 30 °F - 25 °F 74% 30.28 in 6 mi West 2.2 mph - -   Clear
7:00 AM 30.2 °F 25.4 °F 24.8 °F 80% 30.24 in - WSW 4.6 mph - N/A   Clear
7:30 AM 32.0 °F 27.5 °F 24.8 °F 75% 30.24 in - WSW 4.6 mph - N/A   Clear
8:00 AM 32 °F - 26 °F 71% 30.29 in 6 mi West 2.2 mph - -  
8:00 AM 33.8 °F 27.7 °F 26.6 °F 75% 30.24 in - WNW 6.9 mph - N/A   Clear
8:30 AM 37.4 °F 33.8 °F 26.6 °F 65% 30.27 in - West 4.6 mph - N/A   Clear
9:00 AM 36 °F - 27 °F 61% 30.29 in 6 mi West 4.5 mph - -  
9:00 AM 39.2 °F 33.0 °F 26.6 °F 61% 30.24 in - WNW 9.2 mph - N/A   Clear
9:30 AM 41.0 °F 35.2 °F 28.4 °F 61% 30.24 in - NW 9.2 mph - N/A   Clear
10:00 AM 42 °F - 28 °F 44% 30.28 in 6 mi WNW 4.5 mph - -  
10:00 AM 44.6 °F 40.7 °F 28.4 °F 53% 30.24 in - NW 6.9 mph - N/A   Clear
10:30 AM 46.4 °F 41.1 °F 28.4 °F 50% 30.24 in - NNW 11.5 mph - N/A   Clear
11:00 AM 48 °F - 29 °F 35% 30.25 in 6 mi NNW 4.5 mph - -  
11:00 AM 48.2 °F - 28.4 °F 46% 30.24 in - NNW 11.5 mph - N/A   Clear
11:30 AM 51.8 °F - 26.6 °F 38% 30.21 in - NNW 11.5 mph - N/A   Clear
12:00 PM 52 °F - 28 °F 26% 30.24 in 6 mi NNW 6.7 mph - -  
12:00 PM 53.6 °F - 26.6 °F 35% 30.21 in - NNW 11.5 mph - N/A   Clear
12:30 PM 55.4 °F - 26.6 °F 33% 30.18 in - NNW 13.8 mph - N/A   Clear
1:00 PM 55 °F - 26 °F 21% 30.21 in 6 mi NNW 8.9 mph - -  
1:00 PM 57.2 °F - 24.8 °F 29% 30.18 in - NW 13.8 mph - N/A   Clear
1:30 PM 57.2 °F - 24.8 °F 29% 30.15 in - NW 16.1 mph - N/A   Clear
2:00 PM 58 °F - 26 °F 17% 30.18 in 6 mi NNW 6.7 mph - -  
2:00 PM 59.0 °F - 24.8 °F 27% 30.15 in - NW 16.1 mph - N/A   Clear
2:30 PM 60.8 °F - 23.0 °F 23% 30.15 in - NNW 16.1 mph - N/A   Clear
3:00 PM 61 °F - 22 °F 12% 30.16 in 6 mi NNE 11.2 mph - -  
3:00 PM 60.8 °F - 23.0 °F 23% 30.15 in - NNW 16.1 mph - N/A   Clear
3:30 PM 60.8 °F - 23.0 °F 23% 30.12 in - NNW 16.1 mph - N/A   Clear
4:00 PM 62 °F - 22 °F 12% 30.14 in 6 mi North 6.7 mph - -  
4:00 PM 60.8 °F - 21.2 °F 22% 30.12 in - NNW 13.8 mph 26.5 mph N/A   Clear
4:30 PM 60.8 °F - 21.2 °F 22% 30.12 in - NNW 16.1 mph - N/A   Clear
5:00 PM 61 °F - 21 °F 12% 30.14 in 6 mi North 6.7 mph - -  
5:00 PM 59.0 °F - 24.8 °F 27% 30.12 in - NNW 13.8 mph - N/A   Clear
5:30 PM 57.2 °F - 24.8 °F 29% 30.15 in - NW 11.5 mph - N/A   Clear
6:00 PM 58 °F - 24 °F 16% 30.15 in 6 mi NNW 4.5 mph - -  
6:00 PM 53.6 °F - 24.8 °F 33% 30.15 in - NNW 11.5 mph - N/A   Clear
6:30 PM 53.6 °F - 24.8 °F 33% 30.15 in - NNW 11.5 mph - N/A   Clear
7:00 PM 54 °F - 24 °F 20% 30.17 in 6 mi NNW 4.5 mph - -  
7:00 PM 51.8 °F - 26.6 °F 38% 30.15 in - NW 9.2 mph - N/A   Clear
7:30 PM 50.0 °F - 28.4 °F 43% 30.18 in - NW 11.5 mph - N/A   Clear
8:00 PM 52 °F - 27 °F 26% 30.19 in 6 mi NNW 6.7 mph - -  
8:00 PM 50.0 °F - 28.4 °F 43% 30.18 in - NW 9.2 mph - N/A   Clear
8:30 PM 48.2 °F - 28.4 °F 46% 30.18 in - WNW 6.9 mph - N/A   Clear
9:00 PM 47 °F - 30 °F 39% 30.20 in 6 mi WNW 6.7 mph - -  
9:00 PM 46.4 °F 42.9 °F 28.4 °F 50% 30.18 in - WNW 6.9 mph - N/A   Clear
10:00 PM 45 °F - 30 °F 44% 30.22 in 6 mi West 4.5 mph - -  
10:00 PM 46.4 °F 41.9 °F 30.2 °F 53% 30.21 in - NW 9.2 mph - N/A   Clear
11:00 PM 44 °F - 31 °F 48% 30.23 in 6 mi West 4.5 mph - -  
11:00 PM 46.4 °F 40.4 °F 30.2 °F 53% 30.21 in - NW 13.8 mph - N/A   Clear